createdAt,value
2023-01-19T00:00:29.322Z,99396.19
2023-01-19T00:02:56.381Z,99389.69
2023-01-19T00:05:22.970Z,99387.28
2023-01-19T00:07:49.550Z,99394.53
2023-01-19T00:10:16.455Z,99393.84
2023-01-19T00:12:43.053Z,99393.84
2023-01-19T00:15:10.120Z,99396.22
2023-01-19T00:17:36.738Z,99387.63
2023-01-19T00:20:04.029Z,99392.03
2023-01-19T00:22:30.869Z,99384.22
2023-01-19T00:24:57.507Z,99386.41
2023-01-19T00:27:24.740Z,99391.59
2023-01-19T00:29:51.296Z,99390.72
2023-01-19T00:32:18.131Z,99397.72
2023-01-19T00:34:49.377Z,99392.97
2023-01-19T00:37:17.404Z,99394.09
2023-01-19T00:39:44.077Z,99395.69
2023-01-19T00:42:32.235Z,99390.50
2023-01-19T00:44:58.890Z,99394.47
2023-01-19T00:47:25.563Z,99397.44
2023-01-19T00:49:52.143Z,99394.63
2023-01-19T00:52:18.950Z,99400.03
2023-01-19T00:54:45.557Z,99403.63
2023-01-19T00:57:12.715Z,99399.81
2023-01-19T00:59:39.298Z,99404.13
2023-01-19T01:02:06.117Z,99403.69
2023-01-19T01:04:32.814Z,99407.47
2023-01-19T01:06:59.392Z,99395.91
2023-01-19T01:09:26.345Z,99384.91
2023-01-19T01:11:52.958Z,99395.66
2023-01-19T01:14:19.535Z,99395.31
2023-01-19T01:16:46.070Z,99391.63
2023-01-19T01:19:12.623Z,99383.84
2023-01-19T01:21:39.287Z,99399.63
2023-01-19T01:24:06.266Z,99392.63
2023-01-19T01:26:32.770Z,99390.41
2023-01-19T01:28:59.315Z,99387.81
2023-01-19T01:31:26.214Z,99378.78
2023-01-19T01:33:52.748Z,99379.34
2023-01-19T01:36:19.281Z,99381.13
2023-01-19T01:38:45.784Z,99383.53
2023-01-19T01:41:12.683Z,99379.16
2023-01-19T01:43:58.933Z,99387.94
2023-01-19T01:46:27.170Z,99384.47
2023-01-19T01:49:02.752Z,99393.44
2023-01-19T01:51:42.251Z,99396.66
2023-01-19T01:54:12.760Z,99398.19
2023-01-19T01:56:43.697Z,99406.22
2023-01-19T01:59:25.806Z,99406.47
2023-01-19T02:02:16.932Z,99412.75
2023-01-19T02:04:48.080Z,99416.50
2023-01-19T02:07:39.046Z,99407.47
2023-01-19T02:10:24.438Z,99420.09
2023-01-19T02:13:09.891Z,99418.06
2023-01-19T02:15:36.410Z,99417.25
2023-01-19T02:18:02.931Z,99426.00
2023-01-19T02:20:31.811Z,99424.66
2023-01-19T02:23:03.795Z,99424.66
2023-01-19T02:25:30.979Z,99412.31
2023-01-19T02:27:57.741Z,99417.84
2023-01-19T02:30:24.404Z,99413.66
2023-01-19T02:32:50.991Z,99408.09
2023-01-19T02:35:17.653Z,99411.66
2023-01-19T02:37:44.995Z,99409.88
2023-01-19T02:40:14.513Z,99404.69
2023-01-19T02:42:46.244Z,99402.28
2023-01-19T02:45:16.904Z,99406.66
2023-01-19T02:47:46.725Z,99401.47
2023-01-19T02:50:43.551Z,99408.03
2023-01-19T02:53:47.622Z,99411.78
2023-01-19T02:56:51.099Z,99420.13
2023-01-19T02:59:43.262Z,99418.53
2023-01-19T03:02:25.205Z,99417.91
2023-01-19T03:05:00.752Z,99420.94
2023-01-19T03:07:42.661Z,99428.22
2023-01-19T03:10:43.522Z,99416.66
2023-01-19T03:13:29.974Z,99422.47
2023-01-19T03:16:05.695Z,99415.25
2023-01-19T03:18:36.089Z,99408.19
2023-01-19T03:21:07.159Z,99411.81
2023-01-19T03:23:37.107Z,99405.13
2023-01-19T03:26:08.506Z,99404.88
2023-01-19T03:28:39.023Z,99406.47
2023-01-19T03:31:21.324Z,99400.66
2023-01-19T03:33:52.614Z,99392.69
2023-01-19T03:36:46.067Z,99397.88
2023-01-19T03:39:17.760Z,99393.84
2023-01-19T03:41:48.059Z,99381.88
2023-01-19T03:44:15.657Z,99400.03
2023-01-19T03:46:42.544Z,99404.59
2023-01-19T03:49:09.782Z,99402.19
2023-01-19T03:51:37.634Z,99397.72
2023-01-19T03:54:05.667Z,99402.31
2023-01-19T03:56:32.865Z,99407.13
2023-01-19T03:58:59.368Z,99400.16
2023-01-19T04:01:26.179Z,99404.34
2023-01-19T04:03:53.600Z,99399.72
2023-01-19T04:06:20.807Z,99404.47
2023-01-19T04:08:49.125Z,99399.28
2023-01-19T04:11:16.057Z,99403.66
2023-01-19T04:13:42.572Z,99400.88
2023-01-19T04:16:09.943Z,99410.91
2023-01-19T04:18:42.331Z,99412.06
2023-01-19T04:21:08.972Z,99403.81
2023-01-19T04:23:35.560Z,99416.78
2023-01-19T04:26:04.398Z,99414.31
2023-01-19T04:28:31.644Z,99415.16
2023-01-19T04:30:58.547Z,99409.75
2023-01-19T04:33:25.711Z,99411.56
2023-01-19T04:35:54.439Z,99417.53
2023-01-19T04:38:22.628Z,99410.91
2023-01-19T04:40:50.549Z,99412.72
2023-01-19T04:43:17.368Z,99413.34
2023-01-19T04:45:46.559Z,99409.13
2023-01-19T04:48:14.119Z,99412.91
2023-01-19T04:50:43.577Z,99418.25
2023-01-19T04:53:10.306Z,99421.69
2023-01-19T04:55:40.025Z,99418.81
2023-01-19T04:58:06.532Z,99418.44
2023-01-19T05:00:33.787Z,99415.84
2023-01-19T05:03:01.644Z,99417.91
2023-01-19T05:05:28.643Z,99416.50
2023-01-19T05:07:55.367Z,99413.50
2023-01-19T05:10:22.093Z,99407.53
2023-01-19T05:12:48.734Z,99408.31
2023-01-19T05:15:15.460Z,99416.91
2023-01-19T05:17:42.232Z,99413.34
2023-01-19T05:20:11.371Z,99410.75
2023-01-19T05:22:39.211Z,99420.13
2023-01-19T05:25:08.874Z,99410.22
2023-01-19T05:27:36.744Z,99404.56
2023-01-19T05:30:05.087Z,99408.75
2023-01-19T05:32:31.646Z,99408.06
2023-01-19T05:34:58.287Z,99411.88
2023-01-19T05:37:24.831Z,99410.44
2023-01-19T05:39:51.582Z,99402.22
2023-01-19T05:42:18.072Z,99405.25
2023-01-19T05:44:44.603Z,99401.88
2023-01-19T05:47:11.416Z,99393.09
2023-01-19T05:49:37.932Z,99390.50
2023-01-19T05:52:04.784Z,99392.47
2023-01-19T05:54:31.531Z,99380.47
2023-01-19T05:56:58.285Z,99387.00
2023-01-19T05:59:24.837Z,99385.06
2023-01-19T06:01:52.332Z,99390.59
2023-01-19T06:04:19.984Z,99395.00
2023-01-19T06:06:50.569Z,99391.69
2023-01-19T06:09:17.834Z,99388.69
2023-01-19T06:11:44.996Z,99400.50
2023-01-19T06:14:12.072Z,99396.75
2023-01-19T06:16:38.780Z,99393.63
2023-01-19T06:19:05.413Z,99385.47
2023-01-19T06:21:32.515Z,99388.84
2023-01-19T06:23:59.075Z,99388.84
2023-01-19T06:26:26.221Z,99387.88
2023-01-19T06:28:53.083Z,99386.06
2023-01-19T06:31:19.960Z,99366.31
2023-01-19T06:33:46.881Z,99360.03
2023-01-19T06:36:13.716Z,99374.81
2023-01-19T06:38:40.349Z,99370.00
2023-01-19T06:41:06.902Z,99379.41
2023-01-19T06:43:33.508Z,99367.41
2023-01-19T06:46:00.738Z,99371.16
2023-01-19T06:48:27.956Z,99380.91
2023-01-19T06:50:54.848Z,99378.31
2023-01-19T06:53:22.453Z,99389.25
2023-01-19T06:55:49.058Z,99393.53
2023-01-19T06:58:15.729Z,99391.72
2023-01-19T07:00:43.017Z,99393.53
2023-01-19T07:03:18.690Z,99399.53
2023-01-19T07:05:45.231Z,99406.50
2023-01-19T07:08:11.798Z,99402.91
2023-01-19T07:11:21.580Z,99411.53
2023-01-19T07:13:25.195Z,99407.94
2023-01-19T07:15:51.753Z,99412.84
2023-01-19T07:18:18.264Z,99419.84
2023-01-19T07:20:46.842Z,99421.03
2023-01-19T07:23:13.572Z,99426.75
2023-01-19T07:25:40.155Z,99422.19
2023-01-19T07:28:06.766Z,99439.78
2023-01-19T07:30:33.359Z,99446.88
2023-01-19T07:33:00.360Z,99449.91
2023-01-19T07:35:27.134Z,99453.75
2023-01-19T07:37:53.667Z,99448.81
2023-01-19T07:40:20.632Z,99453.06
2023-01-19T07:42:50.501Z,99444.53
2023-01-19T07:45:18.211Z,99445.81
2023-01-19T07:47:45.849Z,99442.66
2023-01-19T07:50:13.896Z,99447.66
2023-01-19T07:52:40.734Z,99448.09
2023-01-19T07:55:08.287Z,99458.91
2023-01-19T07:57:35.944Z,99448.91
2023-01-19T08:00:03.724Z,99455.88
2023-01-19T08:02:31.813Z,99460.63
2023-01-19T08:04:58.444Z,99461.19
2023-01-19T08:07:24.993Z,99457.16
2023-01-19T08:09:51.526Z,99464.00
2023-01-19T08:12:18.385Z,99463.00
2023-01-19T08:14:44.951Z,99452.78
2023-01-19T08:17:13.878Z,99455.81
2023-01-19T08:19:41.669Z,99452.84
2023-01-19T08:22:08.235Z,99453.47
2023-01-19T08:24:34.798Z,99454.66
2023-01-19T08:27:02.724Z,99460.03
2023-01-19T08:29:33.694Z,99464.22
2023-01-19T08:32:02.201Z,99463.22
2023-01-19T08:34:32.594Z,99460.84
2023-01-19T08:36:59.735Z,99457.03
2023-01-19T08:39:27.391Z,99468.44
2023-01-19T08:41:54.507Z,99468.22
2023-01-19T08:44:21.176Z,99460.63
2023-01-19T08:46:48.404Z,99467.72
2023-01-19T08:49:15.850Z,99469.91
2023-01-19T08:51:42.499Z,99464.78
2023-01-19T08:54:09.485Z,99467.63
2023-01-19T08:56:36.809Z,99463.25
2023-01-19T08:59:09.911Z,99461.91
2023-01-19T09:01:37.849Z,99460.91
2023-01-19T09:04:04.679Z,99471.09
2023-01-19T09:06:31.315Z,99466.72
2023-01-19T09:08:58.124Z,99459.34
2023-01-19T09:11:24.655Z,99464.97
2023-01-19T09:13:51.445Z,99453.06
2023-01-19T09:16:18.254Z,99456.88
2023-01-19T09:18:46.168Z,99460.09
2023-01-19T09:21:13.819Z,99464.91
2023-01-19T09:23:40.481Z,99462.13
2023-01-19T09:26:07.359Z,99458.16
2023-01-19T09:28:33.997Z,99459.59
2023-01-19T09:31:05.188Z,99468.00
2023-01-19T09:33:31.780Z,99466.63
2023-01-19T09:35:58.574Z,99461.84
2023-01-19T09:38:25.970Z,99472.53
2023-01-19T09:40:55.284Z,99471.16
2023-01-19T09:43:36.903Z,99476.56
2023-01-19T09:46:16.882Z,99482.81
2023-01-19T09:48:57.755Z,99488.28
2023-01-19T09:51:32.967Z,99493.91
2023-01-19T09:54:12.975Z,99499.34
2023-01-19T09:56:39.756Z,99498.13
2023-01-19T09:59:19.639Z,99503.75
2023-01-19T10:02:04.920Z,99508.41
2023-01-19T10:04:40.109Z,99509.03
2023-01-19T10:07:18.571Z,99517.44
2023-01-19T10:10:18.412Z,99513.66
2023-01-19T10:13:24.977Z,99522.09
2023-01-19T10:16:31.674Z,99524.31
2023-01-19T10:19:12.198Z,99530.13
2023-01-19T10:21:45.197Z,99528.94
2023-01-19T10:24:27.509Z,99528.53
2023-01-19T10:26:55.804Z,99534.56
2023-01-19T10:29:40.288Z,99540.19
2023-01-19T10:32:25.722Z,99536.41
2023-01-19T10:34:53.778Z,99532.41
2023-01-19T10:37:39.432Z,99539.66
2023-01-19T10:40:09.056Z,99541.50
2023-01-19T10:42:37.072Z,99546.13
2023-01-19T10:45:04.941Z,99548.78
2023-01-19T10:47:36.269Z,99540.41
2023-01-19T10:50:23.620Z,99547.25
2023-01-19T10:52:53.289Z,99555.06
2023-01-19T10:55:35.833Z,99549.91
2023-01-19T10:58:02.387Z,99550.75
2023-01-19T11:00:35.193Z,99538.56
2023-01-19T11:03:02.248Z,99528.16
2023-01-19T11:05:32.297Z,99525.59
2023-01-19T11:07:59.304Z,99521.19
2023-01-19T11:10:28.430Z,99525.63
2023-01-19T11:13:16.010Z,99542.88
2023-01-19T11:15:44.062Z,99546.31
2023-01-19T11:18:43.541Z,99538.31
2023-01-19T11:21:14.161Z,99532.31
2023-01-19T11:23:47.677Z,99535.75
2023-01-19T11:26:27.479Z,99536.38
2023-01-19T11:28:56.511Z,99531.13
2023-01-19T11:31:29.318Z,99536.38
2023-01-19T11:33:58.959Z,99536.19
2023-01-19T11:36:28.122Z,99538.00
2023-01-19T11:39:00.862Z,99534.41
2023-01-19T11:41:37.191Z,99526.56
2023-01-19T11:44:30.488Z,99536.59
2023-01-19T11:47:00.834Z,99531.56
2023-01-19T11:49:45.815Z,99534.78
2023-01-19T11:52:18.455Z,99528.53
2023-01-19T11:54:54.815Z,99526.72
2023-01-19T11:57:21.803Z,99522.31
2023-01-19T11:59:50.870Z,99522.88
2023-01-19T12:02:25.773Z,99527.09
2023-01-19T12:04:57.167Z,99528.69
2023-01-19T12:07:30.147Z,99528.22
2023-01-19T12:10:21.743Z,99521.00
2023-01-19T12:12:49.241Z,99520.13
2023-01-19T12:15:34.325Z,99523.47
2023-01-19T12:18:02.667Z,99518.81
2023-01-19T12:20:39.747Z,99529.63
2023-01-19T12:23:18.449Z,99524.56
2023-01-19T12:25:44.960Z,99517.06
2023-01-19T12:28:15.546Z,99512.94
2023-01-19T12:30:42.301Z,99514.47
2023-01-19T12:33:40.077Z,99520.78
2023-01-19T12:36:09.819Z,99513.00
2023-01-19T12:38:44.543Z,99511.66
2023-01-19T12:41:35.474Z,99515.53
2023-01-19T12:44:11.325Z,99515.19
2023-01-19T12:46:47.091Z,99512.19
2023-01-19T12:49:22.757Z,99512.88
2023-01-19T12:51:52.440Z,99511.13
2023-01-19T12:54:28.904Z,99510.38
2023-01-19T12:57:08.412Z,99507.16
2023-01-19T12:59:37.274Z,99508.00
2023-01-19T13:02:42.027Z,99510.25
2023-01-19T13:05:33.556Z,99502.41
2023-01-19T13:08:03.455Z,99497.75
2023-01-19T13:11:10.155Z,99498.00
2023-01-19T13:13:50.344Z,99502.50
2023-01-19T13:16:20.025Z,99500.09
2023-01-19T13:18:52.713Z,99505.47
2023-01-19T13:21:31.768Z,99506.16
2023-01-19T13:24:00.518Z,99512.44
2023-01-19T13:26:35.534Z,99512.44
2023-01-19T13:29:08.031Z,99514.28
2023-01-19T13:31:36.302Z,99518.59
2023-01-19T13:34:04.211Z,99516.66
2023-01-19T13:36:36.362Z,99517.94
2023-01-19T13:39:18.512Z,99522.03
2023-01-19T13:41:47.157Z,99519.16
2023-01-19T13:44:23.733Z,99525.81
2023-01-19T13:46:51.491Z,99520.91
2023-01-19T13:49:35.581Z,99527.88
2023-01-19T13:52:06.384Z,99534.28
2023-01-19T13:54:32.923Z,99526.97
2023-01-19T13:56:59.463Z,99527.53
2023-01-19T13:59:26.034Z,99535.66
2023-01-19T14:01:54.316Z,99536.69
2023-01-19T14:04:32.689Z,99536.09
2023-01-19T14:07:13.770Z,99530.03
2023-01-19T14:09:40.349Z,99528.66
2023-01-19T14:12:12.296Z,99534.38
2023-01-19T14:14:39.057Z,99527.75
2023-01-19T14:17:27.729Z,99519.28
2023-01-19T14:19:56.801Z,99521.00
2023-01-19T14:22:41.208Z,99517.78
2023-01-19T14:25:39.626Z,99525.09
2023-01-19T14:28:28.520Z,99516.06
2023-01-19T14:31:00.357Z,99520.72
2023-01-19T14:33:45.415Z,99522.81
2023-01-19T14:36:28.142Z,99523.84
2023-01-19T14:38:58.079Z,99525.06
2023-01-19T14:41:49.084Z,99527.94
2023-01-19T14:44:36.695Z,99523.91
2023-01-19T14:47:05.203Z,99532.00
2023-01-19T14:49:32.428Z,99534.06
2023-01-19T14:52:01.824Z,99537.13
2023-01-19T14:54:39.963Z,99540.78
2023-01-19T14:57:12.432Z,99550.94
2023-01-19T14:59:39.180Z,99554.59
2023-01-19T15:02:06.168Z,99557.66
2023-01-19T15:04:32.957Z,99567.56
2023-01-19T15:06:59.463Z,99567.25
2023-01-19T15:09:26.063Z,99570.88
2023-01-19T15:11:52.876Z,99578.38
2023-01-19T15:14:21.182Z,99579.66
2023-01-19T15:16:48.768Z,99582.47
2023-01-19T15:19:17.184Z,99584.72
2023-01-19T15:21:45.302Z,99595.91
2023-01-19T15:24:12.973Z,99599.56
2023-01-19T15:26:42.303Z,99595.75
2023-01-19T15:29:25.798Z,99601.69
2023-01-19T15:31:53.156Z,99608.16
2023-01-19T15:34:19.756Z,99610.66
2023-01-19T15:36:46.262Z,99619.19
2023-01-19T15:39:12.804Z,99630.09
2023-01-19T15:41:40.497Z,99625.50
2023-01-19T15:44:10.219Z,99624.78
2023-01-19T15:46:37.260Z,99631.91
2023-01-19T15:49:05.746Z,99636.19
2023-01-19T15:51:33.012Z,99640.47
2023-01-19T15:53:59.833Z,99639.75
2023-01-19T15:56:31.153Z,99645.69
2023-01-19T15:58:58.793Z,99645.50
2023-01-19T16:01:31.535Z,99640.53
2023-01-19T16:04:01.445Z,99647.22
2023-01-19T16:06:28.954Z,99641.69
2023-01-19T16:08:59.799Z,99641.72
2023-01-19T16:11:28.451Z,99649.63
2023-01-19T16:13:55.156Z,99652.31
2023-01-19T16:16:24.137Z,99655.59
2023-01-19T16:18:51.292Z,99656.66
2023-01-19T16:21:18.069Z,99663.72
2023-01-19T16:23:44.605Z,99667.59
2023-01-19T16:26:29.280Z,99664.78
2023-01-19T16:29:00.441Z,99667.44
2023-01-19T16:31:27.472Z,99676.34
2023-01-19T16:33:54.035Z,99681.59
2023-01-19T16:36:29.131Z,99674.19
2023-01-19T16:38:59.676Z,99678.25
2023-01-19T16:41:26.199Z,99680.47
2023-01-19T16:43:54.280Z,99680.09
2023-01-19T16:46:23.992Z,99677.28
2023-01-19T16:48:51.660Z,99679.91
2023-01-19T16:51:19.150Z,99686.38
2023-01-19T16:53:48.521Z,99689.81
2023-01-19T16:56:15.260Z,99696.84
2023-01-19T16:58:42.339Z,99690.03
2023-01-19T17:01:15.293Z,99693.66
2023-01-19T17:03:43.114Z,99701.09
2023-01-19T17:06:16.237Z,99691.06
2023-01-19T17:08:42.787Z,99697.09
2023-01-19T17:11:14.445Z,99690.66
2023-01-19T17:13:41.222Z,99695.09
2023-01-19T17:16:08.299Z,99699.09
2023-01-19T17:18:35.893Z,99702.72
2023-01-19T17:21:08.459Z,99696.91
2023-01-19T17:23:36.239Z,99701.31
2023-01-19T17:26:04.451Z,99701.13
2023-01-19T17:28:31.497Z,99705.53
2023-01-19T17:31:14.335Z,99703.53
2023-01-19T17:33:44.097Z,99707.53
2023-01-19T17:36:13.395Z,99718.59
2023-01-19T17:38:40.576Z,99724.03
2023-01-19T17:41:14.136Z,99717.59
2023-01-19T17:43:40.993Z,99732.66
2023-01-19T17:46:07.617Z,99731.25
2023-01-19T17:48:34.127Z,99736.66
2023-01-19T17:51:09.002Z,99740.09
2023-01-19T17:53:42.571Z,99743.09
2023-01-19T17:56:12.215Z,99742.09
2023-01-19T17:58:39.392Z,99732.81
2023-01-19T18:01:09.092Z,99737.25
2023-01-19T18:03:35.888Z,99734.84
2023-01-19T18:06:02.558Z,99733.84
2023-01-19T18:08:29.383Z,99734.47
2023-01-19T18:11:00.715Z,99735.66
2023-01-19T18:13:28.187Z,99749.13
2023-01-19T18:16:05.489Z,99759.34
2023-01-19T18:18:32.831Z,99765.19
2023-01-19T18:21:04.369Z,99761.19
2023-01-19T18:23:31.117Z,99770.03
2023-01-19T18:26:02.928Z,99765.84
2023-01-19T18:28:29.663Z,99763.41
2023-01-19T18:30:56.411Z,99762.03
2023-01-19T18:33:23.306Z,99767.44
2023-01-19T18:35:49.981Z,99766.47
2023-01-19T18:38:16.778Z,99772.28
2023-01-19T18:40:43.863Z,99774.28
2023-01-19T18:43:12.136Z,99766.25
2023-01-19T18:45:41.785Z,99774.09
2023-01-19T18:48:09.475Z,99768.25
2023-01-19T18:50:37.657Z,99773.50
2023-01-19T18:53:04.472Z,99780.31
2023-01-19T18:55:31.029Z,99777.53
2023-01-19T18:57:57.670Z,99791.78
2023-01-19T19:00:24.375Z,99784.16
2023-01-19T19:02:50.955Z,99784.75
2023-01-19T19:05:17.607Z,99776.72
2023-01-19T19:07:44.304Z,99777.31
2023-01-19T19:10:11.380Z,99786.16
2023-01-19T19:12:38.120Z,99786.56
2023-01-19T19:15:04.997Z,99788.56
2023-01-19T19:17:31.648Z,99790.19
2023-01-19T19:19:58.231Z,99792.16
2023-01-19T19:22:25.627Z,99790.97
2023-01-19T19:24:52.426Z,99787.97
2023-01-19T19:27:18.918Z,99801.66
2023-01-19T19:29:48.847Z,99800.81
2023-01-19T19:32:20.471Z,99805.25
2023-01-19T19:34:52.681Z,99799.63
2023-01-19T19:37:19.969Z,99803.25
2023-01-19T19:39:47.936Z,99808.09
2023-01-19T19:42:14.628Z,99807.28
2023-01-19T19:44:41.157Z,99810.69
2023-01-19T19:47:07.747Z,99808.88
2023-01-19T19:49:34.342Z,99806.06
2023-01-19T19:52:00.931Z,99809.28
2023-01-19T19:54:27.483Z,99818.94
2023-01-19T19:56:54.108Z,99810.09
2023-01-19T19:59:20.707Z,99816.72
2023-01-19T20:01:49.842Z,99824.97
2023-01-19T20:04:20.035Z,99821.38
2023-01-19T20:06:48.407Z,99825.59
2023-01-19T20:09:16.323Z,99833.22
2023-01-19T20:11:45.251Z,99837.47
2023-01-19T20:14:13.579Z,99829.41
2023-01-19T20:16:40.114Z,99837.84
2023-01-19T20:19:06.809Z,99830.81
2023-01-19T20:21:38.561Z,99831.41
2023-01-19T20:24:17.753Z,99838.88
2023-01-19T20:26:48.763Z,99838.06
2023-01-19T20:29:15.435Z,99834.44
2023-01-19T20:31:45.491Z,99837.06
2023-01-19T20:34:14.410Z,99837.84
2023-01-19T20:36:41.655Z,99851.94
2023-01-19T20:39:10.339Z,99849.72
2023-01-19T20:41:43.267Z,99860.19
2023-01-19T20:44:14.991Z,99862.19
2023-01-19T20:46:41.715Z,99878.28
2023-01-19T20:49:08.354Z,99877.25
2023-01-19T20:51:36.000Z,99879.28
2023-01-19T20:54:02.585Z,99885.88
2023-01-19T20:56:29.212Z,99888.91
2023-01-19T20:58:55.903Z,99882.88
2023-01-19T21:01:24.295Z,99890.91
2023-01-19T21:03:51.862Z,99889.31
2023-01-19T21:06:20.068Z,99893.72
2023-01-19T21:08:46.846Z,99901.75
2023-01-19T21:11:13.378Z,99900.16
2023-01-19T21:13:39.950Z,99898.16
2023-01-19T21:16:06.999Z,99907.41
2023-01-19T21:18:33.728Z,99919.84
2023-01-19T21:21:00.317Z,99911.41
2023-01-19T21:23:27.777Z,99909.19
2023-01-19T21:25:56.832Z,99916.22
2023-01-19T21:28:23.827Z,99901.94
2023-01-19T21:30:51.965Z,99909.78
2023-01-19T21:33:19.478Z,99916.56
2023-01-19T21:35:53.773Z,99913.53
2023-01-19T21:38:20.777Z,99916.34
2023-01-19T21:40:47.516Z,99919.97
2023-01-19T21:43:14.488Z,99919.97
2023-01-19T21:45:43.176Z,99920.97
2023-01-19T21:48:10.209Z,99920.34
2023-01-19T21:50:37.443Z,99933.63
2023-01-19T21:53:06.031Z,99937.63
2023-01-19T21:55:33.277Z,99939.03
2023-01-19T21:57:59.941Z,99950.28
2023-01-19T22:00:29.644Z,99951.25
2023-01-19T22:03:04.083Z,99948.41
2023-01-19T22:05:36.388Z,99951.22
2023-01-19T22:08:04.151Z,99955.44
2023-01-19T22:10:30.714Z,99949.81
2023-01-19T22:12:57.514Z,99962.25
2023-01-19T22:15:24.003Z,99974.47
2023-01-19T22:17:50.501Z,99966.00
2023-01-19T22:20:17.254Z,99970.44
2023-01-19T22:22:43.804Z,99979.03
2023-01-19T22:25:10.386Z,99981.22
2023-01-19T22:27:37.492Z,99988.84
2023-01-19T22:30:04.302Z,99974.50
2023-01-19T22:32:31.506Z,99985.38
2023-01-19T22:34:58.141Z,99988.53
2023-01-19T22:37:24.719Z,99990.53
2023-01-19T22:39:53.256Z,100000.97
2023-01-19T22:42:19.794Z,99996.91
2023-01-19T22:44:46.907Z,99994.88
2023-01-19T22:47:14.037Z,100004.31
2023-01-19T22:49:40.807Z,100003.50
2023-01-19T22:52:07.634Z,100005.31
2023-01-19T22:54:34.240Z,100000.88
2023-01-19T22:57:00.954Z,100012.91
2023-01-19T22:59:27.489Z,100018.94
2023-01-19T23:01:54.225Z,100021.91
2023-01-19T23:04:20.916Z,100024.72
2023-01-19T23:06:50.510Z,100019.50
2023-01-19T23:09:17.906Z,100020.69
2023-01-19T23:11:51.338Z,100026.47
2023-01-19T23:14:20.563Z,100023.63
2023-01-19T23:16:47.336Z,100018.78
2023-01-19T23:19:17.056Z,100029.81
2023-01-19T23:21:44.401Z,100035.22
2023-01-19T23:24:11.755Z,100032.63
2023-01-19T23:26:38.583Z,100037.59
2023-01-19T23:29:12.899Z,100041.75
2023-01-19T23:31:42.989Z,100036.72
2023-01-19T23:34:12.060Z,100034.09
2023-01-19T23:36:40.233Z,100036.72
2023-01-19T23:39:12.050Z,100038.88
2023-01-19T23:41:38.572Z,100040.50
2023-01-19T23:44:05.565Z,100033.09
2023-01-19T23:46:32.348Z,100036.16
2023-01-19T23:48:58.864Z,100033.78
2023-01-19T23:51:29.292Z,100034.41
2023-01-19T23:53:58.050Z,100037.47
2023-01-19T23:56:33.431Z,100038.72
2023-01-19T23:59:09.173Z,100045.16
